BJK9260 KSLC-PHOG
Flight info
| Callsign | BJK9260 |
|---|---|
| Flight time | N/A |
| Altitude | 40000 |
| Route | DEZRT2 BAM FMG PYE BEBOP R464 BITTA LNDHY1 |
| Aircraft | A332/H-VGDW/C |
Departure
| Time | N/A |
|---|---|
| Airport | Salt Lake City International Airport (KSLC) |
Arrival
| Time | 2026-04-30 20:52 |
|---|---|
| Airport | Kahului International Airport (PHOG) |
| Time | Latitude | Longitude | Altitude | Speed | Heading |
|---|---|---|---|---|---|
| 2026-04-30 19:15 | 27.94736 | -147.86616 | 40324 ft | 472 kts | 239° |
| 2026-04-30 19:15 | 27.89661 | -147.96147 | 40328 ft | 472 kts | 239° |
| 2026-04-30 19:16 | 27.86263 | -148.02514 | 40322 ft | 473 kts | 239° |
| 2026-04-30 19:17 | 27.81162 | -148.12053 | 40317 ft | 473 kts | 239° |
| 2026-04-30 19:17 | 27.76053 | -148.21587 | 40321 ft | 473 kts | 239° |
| 2026-04-30 19:18 | 27.70934 | -148.31118 | 40320 ft | 474 kts | 239° |
| 2026-04-30 19:19 | 27.67515 | -148.37473 | 40318 ft | 474 kts | 239° |
| 2026-04-30 19:19 | 27.62382 | -148.46996 | 40316 ft | 474 kts | 239° |
| 2026-04-30 19:20 | 27.58956 | -148.53340 | 40318 ft | 474 kts | 239° |
| 2026-04-30 19:21 | 27.53814 | -148.62844 | 40313 ft | 473 kts | 239° |
| 2026-04-30 19:22 | 27.46953 | -148.75493 | 40312 ft | 473 kts | 239° |
| 2026-04-30 19:23 | 27.36636 | -148.94445 | 40306 ft | 473 kts | 239° |
| 2026-04-30 19:24 | 27.31462 | -149.03918 | 40302 ft | 473 kts | 239° |
| 2026-04-30 19:25 | 27.22832 | -149.19673 | 40305 ft | 473 kts | 239° |
| 2026-04-30 19:26 | 27.15928 | -149.32238 | 40301 ft | 472 kts | 239° |
| 2026-04-30 19:27 | 27.10759 | -149.41622 | 40306 ft | 474 kts | 239° |
| 2026-04-30 19:28 | 27.05550 | -149.51056 | 40307 ft | 474 kts | 239° |
| 2026-04-30 19:29 | 26.98612 | -149.63592 | 40303 ft | 473 kts | 239° |
| 2026-04-30 19:30 | 26.91648 | -149.76140 | 40301 ft | 474 kts | 239° |
| 2026-04-30 19:31 | 26.85263 | -149.87614 | 40307 ft | 473 kts | 239° |
| 2026-04-30 19:31 | 26.80039 | -149.96979 | 40302 ft | 473 kts | 239° |
| 2026-04-30 19:32 | 26.76551 | -150.03221 | 40296 ft | 473 kts | 239° |
| 2026-04-30 19:32 | 26.73057 | -150.09466 | 40298 ft | 473 kts | 239° |
| 2026-04-30 19:33 | 26.69561 | -150.15704 | 40298 ft | 473 kts | 239° |
| 2026-04-30 19:33 | 26.66067 | -150.21931 | 40295 ft | 472 kts | 239° |
| 2026-04-30 19:34 | 26.62575 | -150.28146 | 40296 ft | 472 kts | 239° |
| 2026-04-30 19:35 | 26.57324 | -150.37474 | 40295 ft | 473 kts | 239° |
| 2026-04-30 19:35 | 26.53823 | -150.43684 | 40300 ft | 472 kts | 239° |
| 2026-04-30 19:36 | 26.50316 | -150.49894 | 40288 ft | 472 kts | 239° |
| 2026-04-30 19:36 | 26.45065 | -150.59178 | 40287 ft | 471 kts | 239° |
| 2026-04-30 19:37 | 26.41563 | -150.65359 | 40291 ft | 471 kts | 239° |
| 2026-04-30 19:37 | 26.38063 | -150.71529 | 40294 ft | 471 kts | 239° |
| 2026-04-30 19:38 | 26.34556 | -150.77700 | 40293 ft | 471 kts | 239° |
| 2026-04-30 19:38 | 26.31068 | -150.83832 | 40279 ft | 471 kts | 239° |
| 2026-04-30 19:39 | 26.27533 | -150.90037 | 40291 ft | 471 kts | 239° |
| 2026-04-30 19:39 | 26.24049 | -150.96144 | 40290 ft | 470 kts | 239° |
| 2026-04-30 19:40 | 26.20536 | -151.02295 | 40279 ft | 470 kts | 239° |
| 2026-04-30 19:40 | 26.17021 | -151.08440 | 40286 ft | 470 kts | 239° |
| 2026-04-30 19:41 | 26.13503 | -151.14583 | 40286 ft | 471 kts | 239° |
| 2026-04-30 19:41 | 26.09983 | -151.20720 | 40284 ft | 470 kts | 239° |
| 2026-04-30 19:42 | 26.06470 | -151.26838 | 40287 ft | 469 kts | 239° |
| 2026-04-30 19:42 | 26.02959 | -151.32943 | 40281 ft | 469 kts | 239° |
| 2026-04-30 19:43 | 25.99444 | -151.39049 | 40285 ft | 469 kts | 239° |
| 2026-04-30 19:44 | 25.94174 | -151.48186 | 40285 ft | 471 kts | 239° |
| 2026-04-30 19:44 | 25.90639 | -151.54304 | 40282 ft | 470 kts | 239° |
| 2026-04-30 19:45 | 25.87112 | -151.60401 | 40279 ft | 469 kts | 239° |
| 2026-04-30 19:45 | 25.83580 | -151.66499 | 40279 ft | 469 kts | 239° |
| 2026-04-30 19:46 | 25.80048 | -151.72588 | 40276 ft | 469 kts | 239° |
| 2026-04-30 19:46 | 25.76514 | -151.78673 | 40276 ft | 469 kts | 239° |
| 2026-04-30 19:47 | 25.72979 | -151.84752 | 40277 ft | 469 kts | 238° |
| 2026-04-30 19:47 | 25.69444 | -151.90823 | 40277 ft | 467 kts | 239° |
| 2026-04-30 19:48 | 25.65920 | -151.96866 | 40275 ft | 467 kts | 239° |
| 2026-04-30 19:48 | 25.62383 | -152.02926 | 40272 ft | 468 kts | 239° |
| 2026-04-30 19:49 | 25.58844 | -152.08979 | 40274 ft | 468 kts | 239° |
| 2026-04-30 19:49 | 25.53529 | -152.18056 | 40268 ft | 468 kts | 239° |
| 2026-04-30 19:50 | 25.50003 | -152.24070 | 40262 ft | 468 kts | 239° |
| 2026-04-30 19:50 | 25.46449 | -152.30121 | 40271 ft | 470 kts | 238° |
| 2026-04-30 19:51 | 25.42881 | -152.36189 | 40270 ft | 470 kts | 238° |
| 2026-04-30 19:51 | 25.39315 | -152.42247 | 40270 ft | 470 kts | 238° |
| 2026-04-30 19:52 | 25.35741 | -152.48308 | 40269 ft | 470 kts | 238° |
| 2026-04-30 19:52 | 25.32167 | -152.54365 | 40258 ft | 470 kts | 238° |
| 2026-04-30 19:53 | 25.28591 | -152.60415 | 40266 ft | 470 kts | 239° |
| 2026-04-30 19:53 | 25.25012 | -152.66464 | 40263 ft | 471 kts | 238° |
| 2026-04-30 19:54 | 25.21425 | -152.72517 | 40262 ft | 471 kts | 238° |
| 2026-04-30 19:54 | 25.17839 | -152.78560 | 40263 ft | 471 kts | 238° |
| 2026-04-30 19:55 | 25.14251 | -152.84601 | 40262 ft | 471 kts | 238° |
| 2026-04-30 19:55 | 25.10654 | -152.90649 | 40264 ft | 472 kts | 238° |
| 2026-04-30 19:56 | 25.07052 | -152.96696 | 40257 ft | 471 kts | 238° |
| 2026-04-30 19:56 | 25.03454 | -153.02730 | 40254 ft | 470 kts | 238° |
| 2026-04-30 19:57 | 24.99855 | -153.08758 | 40258 ft | 471 kts | 238° |
| 2026-04-30 19:57 | 24.96253 | -153.14785 | 40256 ft | 471 kts | 238° |
| 2026-04-30 19:58 | 24.92640 | -153.20821 | 40255 ft | 472 kts | 238° |
| 2026-04-30 19:58 | 24.89020 | -153.26862 | 40251 ft | 472 kts | 238° |
| 2026-04-30 19:59 | 24.85407 | -153.32882 | 40251 ft | 470 kts | 238° |
| 2026-04-30 20:00 | 24.80000 | -153.41879 | 40252 ft | 470 kts | 238° |
| 2026-04-30 20:00 | 24.76407 | -153.47848 | 40254 ft | 471 kts | 238° |
| 2026-04-30 20:01 | 24.70965 | -153.56876 | 40249 ft | 473 kts | 238° |
| 2026-04-30 20:01 | 24.67330 | -153.62895 | 40246 ft | 472 kts | 238° |
| 2026-04-30 20:02 | 24.61891 | -153.71888 | 40244 ft | 470 kts | 238° |
| 2026-04-30 20:03 | 24.56452 | -153.80866 | 40246 ft | 472 kts | 238° |
| 2026-04-30 20:03 | 24.52806 | -153.86875 | 40246 ft | 473 kts | 238° |
| 2026-04-30 20:04 | 24.49159 | -153.92877 | 40243 ft | 473 kts | 238° |
| 2026-04-30 20:05 | 24.43687 | -154.01868 | 40237 ft | 470 kts | 238° |
| 2026-04-30 20:05 | 24.38240 | -154.10804 | 40236 ft | 472 kts | 238° |
| 2026-04-30 20:06 | 24.34583 | -154.16796 | 40235 ft | 473 kts | 238° |
| 2026-04-30 20:06 | 24.30920 | -154.22789 | 40235 ft | 473 kts | 238° |
| 2026-04-30 20:07 | 24.27245 | -154.28766 | 40233 ft | 473 kts | 238° |
| 2026-04-30 20:08 | 24.21714 | -154.37713 | 40226 ft | 471 kts | 238° |
| 2026-04-30 20:08 | 24.18034 | -154.43658 | 40231 ft | 473 kts | 238° |
| 2026-04-30 20:09 | 24.14332 | -154.49630 | 40229 ft | 474 kts | 238° |
| 2026-04-30 20:09 | 24.08775 | -154.58581 | 40228 ft | 474 kts | 238° |
| 2026-04-30 20:10 | 24.03213 | -154.67525 | 40224 ft | 474 kts | 238° |
| 2026-04-30 20:11 | 23.97688 | -154.76391 | 40229 ft | 470 kts | 238° |
| 2026-04-30 20:11 | 23.93988 | -154.82323 | 40221 ft | 469 kts | 238° |
| 2026-04-30 20:12 | 23.88490 | -154.91122 | 40216 ft | 470 kts | 238° |
| 2026-04-30 20:13 | 23.84807 | -154.97008 | 40221 ft | 470 kts | 238° |
| 2026-04-30 20:13 | 23.81108 | -155.02913 | 40218 ft | 473 kts | 238° |
| 2026-04-30 20:14 | 23.77388 | -155.08842 | 40215 ft | 472 kts | 238° |
| 2026-04-30 20:14 | 23.73690 | -155.14731 | 40214 ft | 469 kts | 238° |
| 2026-04-30 20:15 | 23.70000 | -155.20599 | 40213 ft | 469 kts | 238° |
| 2026-04-30 20:15 | 23.66308 | -155.26466 | 40214 ft | 469 kts | 238° |
| 2026-04-30 20:16 | 23.62609 | -155.32335 | 40208 ft | 470 kts | 238° |
| 2026-04-30 20:16 | 23.58888 | -155.38234 | 40210 ft | 474 kts | 238° |
| 2026-04-30 20:17 | 23.55118 | -155.44140 | 40207 ft | 474 kts | 234° |
| 2026-04-30 20:17 | 23.52828 | -155.46721 | 40209 ft | 476 kts | 219° |
| 2026-04-30 20:17 | 23.49980 | -155.48554 | 40210 ft | 478 kts | 203° |
| 2026-04-30 20:18 | 23.43578 | -155.50552 | 40203 ft | 481 kts | 195° |
| 2026-04-30 20:18 | 23.38171 | -155.52008 | 40206 ft | 483 kts | 195° |
| 2026-04-30 20:19 | 23.31654 | -155.53797 | 40201 ft | 483 kts | 195° |
| 2026-04-30 20:19 | 23.25145 | -155.55603 | 40197 ft | 483 kts | 195° |
| 2026-04-30 20:20 | 23.17584 | -155.57706 | 40197 ft | 483 kts | 195° |
| 2026-04-30 20:20 | 23.12135 | -155.59221 | 40197 ft | 483 kts | 195° |
| 2026-04-30 20:21 | 23.05628 | -155.61030 | 40198 ft | 483 kts | 195° |
| 2026-04-30 20:21 | 22.99111 | -155.62840 | 40194 ft | 484 kts | 195° |
| 2026-04-30 20:22 | 22.92633 | -155.64637 | 40205 ft | 484 kts | 195° |
| 2026-04-30 20:22 | 22.86113 | -155.66444 | 40194 ft | 484 kts | 195° |
| 2026-04-30 20:23 | 22.79597 | -155.68249 | 40190 ft | 484 kts | 195° |
| 2026-04-30 20:23 | 22.73071 | -155.70055 | 40184 ft | 484 kts | 196° |
| 2026-04-30 20:23 | 22.69834 | -155.70947 | 39951 ft | 479 kts | 196° |
| 2026-04-30 20:24 | 22.66585 | -155.71842 | 39239 ft | 484 kts | 195° |
| 2026-04-30 20:24 | 22.63316 | -155.72742 | 38574 ft | 487 kts | 195° |
| 2026-04-30 20:24 | 22.60024 | -155.73648 | 37946 ft | 487 kts | 195° |
| 2026-04-30 20:24 | 22.56745 | -155.74549 | 37366 ft | 486 kts | 195° |
| 2026-04-30 20:25 | 22.50196 | -155.76348 | 36145 ft | 486 kts | 195° |
| 2026-04-30 20:25 | 22.46918 | -155.77248 | 35492 ft | 487 kts | 195° |
| 2026-04-30 20:26 | 22.40310 | -155.79062 | 33988 ft | 493 kts | 195° |
| 2026-04-30 20:26 | 22.33628 | -155.80893 | 32318 ft | 498 kts | 195° |
| 2026-04-30 20:26 | 22.30264 | -155.81814 | 31613 ft | 498 kts | 195° |
| 2026-04-30 20:27 | 22.23606 | -155.83635 | 30486 ft | 490 kts | 195° |
| 2026-04-30 20:27 | 22.17031 | -155.85434 | 29210 ft | 483 kts | 195° |
| 2026-04-30 20:28 | 22.10565 | -155.87202 | 28001 ft | 475 kts | 195° |
| 2026-04-30 20:28 | 22.04207 | -155.88939 | 26829 ft | 468 kts | 195° |
| 2026-04-30 20:29 | 21.97931 | -155.90650 | 25607 ft | 462 kts | 194° |
| 2026-04-30 20:30 | 21.88664 | -155.93173 | 23830 ft | 454 kts | 194° |
| 2026-04-30 20:30 | 21.79620 | -155.95636 | 22008 ft | 442 kts | 194° |
| 2026-04-30 20:31 | 21.70808 | -155.98030 | 20294 ft | 429 kts | 194° |
| 2026-04-30 20:32 | 21.62230 | -156.00359 | 18618 ft | 419 kts | 194° |
| 2026-04-30 20:32 | 21.56635 | -156.01874 | 17419 ft | 411 kts | 194° |
| 2026-04-30 20:33 | 21.53867 | -156.02625 | 16736 ft | 409 kts | 194° |
| 2026-04-30 20:33 | 21.48401 | -156.04106 | 15596 ft | 400 kts | 193° |
| 2026-04-30 20:33 | 21.45718 | -156.04833 | 15055 ft | 396 kts | 193° |
| 2026-04-30 20:34 | 21.40432 | -156.06262 | 13973 ft | 388 kts | 193° |
| 2026-04-30 20:34 | 21.35258 | -156.07659 | 12839 ft | 379 kts | 193° |
| 2026-04-30 20:35 | 21.32719 | -156.08345 | 12334 ft | 373 kts | 193° |
| 2026-04-30 20:35 | 21.30220 | -156.09020 | 11822 ft | 368 kts | 193° |
| 2026-04-30 20:35 | 21.25353 | -156.10336 | 10829 ft | 359 kts | 192° |
| 2026-04-30 20:36 | 21.22986 | -156.10976 | 10713 ft | 342 kts | 192° |
| 2026-04-30 20:36 | 21.20737 | -156.11584 | 10629 ft | 326 kts | 192° |
| 2026-04-30 20:36 | 21.16586 | -156.13102 | 10109 ft | 314 kts | 210° |
| 2026-04-30 20:37 | 21.14789 | -156.14403 | 9700 ft | 312 kts | 214° |
| 2026-04-30 20:37 | 21.13026 | -156.15771 | 9252 ft | 311 kts | 214° |
| 2026-04-30 20:37 | 21.11295 | -156.17123 | 8940 ft | 305 kts | 214° |
| 2026-04-30 20:37 | 21.09570 | -156.18464 | 8452 ft | 307 kts | 214° |
| 2026-04-30 20:38 | 21.07861 | -156.19786 | 8283 ft | 297 kts | 214° |
| 2026-04-30 20:38 | 21.06226 | -156.21051 | 8175 ft | 285 kts | 214° |
| 2026-04-30 20:38 | 21.04646 | -156.22270 | 8047 ft | 275 kts | 214° |
| 2026-04-30 20:39 | 21.01604 | -156.24600 | 7584 ft | 267 kts | 213° |
| 2026-04-30 20:39 | 21.00075 | -156.25760 | 7168 ft | 272 kts | 213° |
| 2026-04-30 20:39 | 20.98555 | -156.26914 | 7026 ft | 263 kts | 213° |
| 2026-04-30 20:40 | 20.95572 | -156.29175 | 6367 ft | 266 kts | 213° |
| 2026-04-30 20:40 | 20.94067 | -156.30321 | 6030 ft | 265 kts | 213° |
| 2026-04-30 20:40 | 20.92585 | -156.31445 | 5872 ft | 257 kts | 212° |
| 2026-04-30 20:41 | 20.89713 | -156.33615 | 5486 ft | 248 kts | 212° |
| 2026-04-30 20:41 | 20.88304 | -156.34664 | 5224 ft | 246 kts | 211° |
| 2026-04-30 20:41 | 20.86891 | -156.35705 | 4959 ft | 246 kts | 210° |
| 2026-04-30 20:41 | 20.85488 | -156.36743 | 4861 ft | 246 kts | 211° |
| 2026-04-30 20:42 | 20.84086 | -156.37781 | 4836 ft | 245 kts | 212° |
| 2026-04-30 20:42 | 20.82691 | -156.38814 | 4797 ft | 244 kts | 211° |
| 2026-04-30 20:42 | 20.79887 | -156.40885 | 4701 ft | 244 kts | 211° |
| 2026-04-30 20:43 | 20.78491 | -156.41919 | 4665 ft | 244 kts | 211° |
| 2026-04-30 20:43 | 20.77093 | -156.42954 | 4630 ft | 245 kts | 211° |
| 2026-04-30 20:43 | 20.75693 | -156.43992 | 4570 ft | 245 kts | 211° |
| 2026-04-30 20:44 | 20.72909 | -156.46056 | 4441 ft | 247 kts | 211° |
| 2026-04-30 20:44 | 20.71490 | -156.47113 | 4377 ft | 249 kts | 212° |
| 2026-04-30 20:44 | 20.68671 | -156.49211 | 4234 ft | 247 kts | 212° |
| 2026-04-30 20:45 | 20.66766 | -156.52098 | 3993 ft | 244 kts | 273° |
| 2026-04-30 20:45 | 20.67214 | -156.53773 | 3986 ft | 233 kts | 305° |
| 2026-04-30 20:45 | 20.68109 | -156.55214 | 3964 ft | 233 kts | 314° |
| 2026-04-30 20:46 | 20.72067 | -156.56198 | 3990 ft | 204 kts | 32° |
| 2026-04-30 20:46 | 20.73256 | -156.55378 | 3851 ft | 203 kts | 39° |
| 2026-04-30 20:47 | 20.75522 | -156.53626 | 3266 ft | 200 kts | 37° |
| 2026-04-30 20:47 | 20.76626 | -156.52811 | 2979 ft | 186 kts | 37° |
| 2026-04-30 20:48 | 20.78603 | -156.51331 | 2519 ft | 160 kts | 38° |
| 2026-04-30 20:48 | 20.79482 | -156.50674 | 2318 ft | 149 kts | 37° |
| 2026-04-30 20:48 | 20.80306 | -156.50059 | 2127 ft | 141 kts | 38° |
| 2026-04-30 20:48 | 20.81084 | -156.49478 | 1944 ft | 130 kts | 36° |
| 2026-04-30 20:49 | 20.81778 | -156.48961 | 1807 ft | 115 kts | 38° |
| 2026-04-30 20:49 | 20.82429 | -156.48473 | 1647 ft | 113 kts | 36° |
| 2026-04-30 20:49 | 20.83088 | -156.47982 | 1486 ft | 117 kts | 37° |
| 2026-04-30 20:50 | 20.84442 | -156.46971 | 1176 ft | 118 kts | 34° |
| 2026-04-30 20:50 | 20.85120 | -156.46465 | 1023 ft | 119 kts | 35° |
| 2026-04-30 20:50 | 20.85802 | -156.45955 | 852 ft | 118 kts | 33° |
| 2026-04-30 20:50 | 20.86471 | -156.45456 | 706 ft | 117 kts | 35° |
| 2026-04-30 20:51 | 20.87118 | -156.44972 | 548 ft | 111 kts | 36° |
| 2026-04-30 20:51 | 20.88431 | -156.43989 | 224 ft | 115 kts | 33° |
| 2026-04-30 20:51 | 20.89072 | -156.43517 | 41 ft | 110 kts | 35° |
| 2026-04-30 20:52 | 20.89555 | -156.43159 | 37 ft | 45 kts | 35° |
| 2026-04-30 20:52 | 20.89625 | -156.43108 | 36 ft | 2 kts | 34° |
| 2026-04-30 20:52 | 20.89754 | -156.43108 | 33 ft | 13 kts | 309° |
| 2026-04-30 20:53 | 20.89740 | -156.43184 | 34 ft | 11 kts | 217° |
| 2026-04-30 20:53 | 20.89668 | -156.43235 | 35 ft | 14 kts | 216° |
| 2026-04-30 20:53 | 20.89585 | -156.43300 | 35 ft | 16 kts | 214° |
| 2026-04-30 20:54 | 20.89377 | -156.43451 | 34 ft | 20 kts | 217° |
| 2026-04-30 20:54 | 20.89258 | -156.43546 | 35 ft | 22 kts | 213° |
| 2026-04-30 20:54 | 20.89122 | -156.43642 | 36 ft | 24 kts | 214° |
| 2026-04-30 20:55 | 20.88922 | -156.43858 | 36 ft | 11 kts | 321° |
| 2026-04-30 20:55 | 20.88963 | -156.43852 | 36 ft | 0 kts | 34° |